createdAt,value
2022-08-17T00:00:18.254Z,22.22
2022-08-17T00:06:02.910Z,22.20
2022-08-17T00:11:14.517Z,22.14
2022-08-17T00:16:55.414Z,22.02
2022-08-17T00:22:32.814Z,21.88
2022-08-17T00:27:21.895Z,21.81
2022-08-17T00:33:12.357Z,21.75
2022-08-17T00:37:48.690Z,21.68
2022-08-17T00:42:53.599Z,21.68
2022-08-17T00:47:56.959Z,21.69
2022-08-17T00:53:00.875Z,21.73
2022-08-17T00:58:06.542Z,21.76
2022-08-17T01:03:19.887Z,21.73
2022-08-17T01:08:27.375Z,21.72
2022-08-17T01:13:43.409Z,21.74
2022-08-17T01:18:50.917Z,21.73
2022-08-17T01:23:54.432Z,21.70
2022-08-17T01:28:58.100Z,21.63
2022-08-17T01:34:03.666Z,21.60
2022-08-17T01:39:12.176Z,21.61
2022-08-17T01:44:17.095Z,21.62
2022-08-17T01:49:20.415Z,21.62
2022-08-17T01:54:25.971Z,21.65
2022-08-17T01:59:29.281Z,21.67
2022-08-17T02:04:32.541Z,21.68
2022-08-17T02:09:35.801Z,21.69
2022-08-17T02:14:44.949Z,21.69
2022-08-17T02:19:48.053Z,21.69
2022-08-17T02:25:00.815Z,21.65
2022-08-17T02:30:59.531Z,21.67
2022-08-17T02:35:32.296Z,21.67
2022-08-17T02:40:37.621Z,21.68
2022-08-17T02:45:41.064Z,21.66
2022-08-17T02:50:44.373Z,21.64
2022-08-17T02:55:47.685Z,21.64
2022-08-17T03:00:50.996Z,21.64
2022-08-17T03:05:54.306Z,21.62
2022-08-17T03:10:58.136Z,21.62
2022-08-17T03:16:01.647Z,21.56
2022-08-17T03:21:05.165Z,21.49
2022-08-17T03:26:12.345Z,21.44
2022-08-17T03:31:19.057Z,21.36
2022-08-17T03:36:22.673Z,21.27
2022-08-17T03:41:25.777Z,21.25
2022-08-17T03:46:47.828Z,21.21
2022-08-17T03:52:10.391Z,21.20
2022-08-17T03:57:14.121Z,21.18
2022-08-17T04:02:28.896Z,21.17
2022-08-17T04:07:32.210Z,21.08
2022-08-17T04:12:55.071Z,21.13
2022-08-17T04:17:58.382Z,21.20
2022-08-17T04:23:11.935Z,21.27
2022-08-17T04:28:16.508Z,21.33
2022-08-17T04:33:25.126Z,21.41
2022-08-17T04:38:32.148Z,21.48
2022-08-17T04:43:38.079Z,21.59
2022-08-17T04:48:45.130Z,21.70
2022-08-17T04:53:54.445Z,21.80
2022-08-17T04:59:01.726Z,21.93
2022-08-17T05:04:21.034Z,22.08
2022-08-17T05:09:32.931Z,22.27
2022-08-17T05:14:39.323Z,22.41
2022-08-17T05:19:42.626Z,22.61
2022-08-17T05:24:53.710Z,22.84
2022-08-17T05:29:57.441Z,23.05
2022-08-17T05:35:01.000Z,23.23
2022-08-17T05:40:04.565Z,23.41
2022-08-17T05:45:08.969Z,23.59
2022-08-17T05:50:29.903Z,23.79
2022-08-17T05:56:29.226Z,24.01
2022-08-17T06:02:04.523Z,24.32
2022-08-17T06:07:24.522Z,24.79
2022-08-17T06:12:46.190Z,25.08
2022-08-17T06:18:13.805Z,25.38
2022-08-17T06:23:31.324Z,25.82
2022-08-17T06:28:41.666Z,26.06
2022-08-17T06:33:47.944Z,26.29
2022-08-17T06:39:38.091Z,26.58
2022-08-17T06:44:51.491Z,26.72
2022-08-17T06:50:16.930Z,26.90
2022-08-17T06:55:45.533Z,26.95
2022-08-17T07:00:56.710Z,26.96
2022-08-17T07:06:09.359Z,26.99
2022-08-17T07:11:17.043Z,27.01
2022-08-17T07:16:31.548Z,27.00
2022-08-17T07:22:14.388Z,26.92
2022-08-17T07:27:36.247Z,26.88
2022-08-17T07:32:46.297Z,27.01
2022-08-17T07:37:55.833Z,27.00
2022-08-17T07:43:23.009Z,26.96
2022-08-17T07:48:27.927Z,27.08
2022-08-17T07:53:32.315Z,26.99
2022-08-17T07:58:35.723Z,26.96
2022-08-17T08:03:44.722Z,26.95
2022-08-17T08:08:56.107Z,26.95
2022-08-17T08:14:28.647Z,27.11
2022-08-17T08:19:33.204Z,27.31
2022-08-17T08:24:45.733Z,27.46
2022-08-17T08:29:54.571Z,27.50
2022-08-17T08:35:13.449Z,27.66
2022-08-17T08:40:22.698Z,27.76
2022-08-17T08:45:33.381Z,27.90
2022-08-17T08:50:43.660Z,28.15
2022-08-17T08:56:01.508Z,28.39
2022-08-17T09:01:17.656Z,28.57
2022-08-17T09:06:59.534Z,28.77
2022-08-17T09:12:17.082Z,28.89
2022-08-17T09:17:40.772Z,29.27
2022-08-17T09:22:51.043Z,29.69
2022-08-17T09:28:19.497Z,29.90
2022-08-17T09:33:27.947Z,29.93
2022-08-17T09:38:54.222Z,29.97
2022-08-17T09:44:10.732Z,30.25
2022-08-17T09:49:47.137Z,30.56
2022-08-17T09:54:52.574Z,30.66
2022-08-17T10:00:03.377Z,30.81
2022-08-17T10:05:22.152Z,30.88
2022-08-17T10:10:33.346Z,30.60
2022-08-17T10:15:42.705Z,30.46
2022-08-17T10:21:20.110Z,30.77
2022-08-17T10:26:26.805Z,31.18
2022-08-17T10:31:52.332Z,31.50
2022-08-17T10:37:38.959Z,31.58
2022-08-17T10:43:00.908Z,31.70
2022-08-17T10:48:07.482Z,32.07
2022-08-17T10:53:11.114Z,32.33
2022-08-17T10:58:22.253Z,32.75
2022-08-17T11:03:26.722Z,32.99
2022-08-17T11:08:36.614Z,33.22
2022-08-17T11:13:59.581Z,33.43
2022-08-17T11:19:40.164Z,33.58
2022-08-17T11:24:48.049Z,33.02
2022-08-17T11:30:00.949Z,33.08
2022-08-17T11:35:12.429Z,33.21
2022-08-17T11:40:34.473Z,33.56
2022-08-17T11:46:11.495Z,33.40
2022-08-17T11:51:35.983Z,33.16
2022-08-17T11:56:41.543Z,33.15
2022-08-17T12:01:56.921Z,33.56
2022-08-17T12:07:17.453Z,34.14
2022-08-17T12:12:38.275Z,34.09
2022-08-17T12:17:42.865Z,33.87
2022-08-17T12:23:15.514Z,33.92
2022-08-17T12:28:33.058Z,34.04
2022-08-17T12:33:42.719Z,34.12
2022-08-17T12:39:13.297Z,33.75
2022-08-17T12:44:23.544Z,33.19
2022-08-17T12:49:30.029Z,32.70
2022-08-17T12:54:42.377Z,32.66
2022-08-17T12:59:50.885Z,32.63
2022-08-17T13:04:57.055Z,33.12
2022-08-17T13:10:00.373Z,33.74
2022-08-17T13:15:04.577Z,33.70
2022-08-17T13:20:15.344Z,33.50
2022-08-17T13:25:19.135Z,33.52
2022-08-17T13:30:29.454Z,33.37
2022-08-17T13:35:50.290Z,33.21
2022-08-17T13:40:54.134Z,33.01
2022-08-17T13:46:13.007Z,33.11
2022-08-17T13:51:25.127Z,33.39
2022-08-17T13:56:41.032Z,33.87
2022-08-17T14:01:52.794Z,34.60
2022-08-17T14:07:15.815Z,35.56
2022-08-17T14:12:24.706Z,37.88
2022-08-17T14:17:31.024Z,40.78
2022-08-17T14:22:38.939Z,39.98
2022-08-17T14:27:52.864Z,37.39
2022-08-17T14:32:58.350Z,35.38
2022-08-17T14:38:06.297Z,33.95
2022-08-17T14:43:09.611Z,33.29
2022-08-17T14:48:13.023Z,33.10
2022-08-17T14:53:16.848Z,32.86
2022-08-17T14:58:20.363Z,32.56
2022-08-17T15:03:23.877Z,32.24
2022-08-17T15:08:28.730Z,32.12
2022-08-17T15:13:32.241Z,32.13
2022-08-17T15:18:36.936Z,32.18
2022-08-17T15:23:40.299Z,32.27
2022-08-17T15:28:48.986Z,32.58
2022-08-17T15:33:58.899Z,32.98
2022-08-17T15:39:03.438Z,33.83
2022-08-17T15:44:06.752Z,34.15
2022-08-17T15:49:09.962Z,33.87
2022-08-17T15:54:19.172Z,33.50
2022-08-17T15:59:26.419Z,33.56
2022-08-17T16:04:31.805Z,33.88
2022-08-17T16:09:35.489Z,34.87
2022-08-17T16:14:39.108Z,39.63
2022-08-17T16:19:42.418Z,42.55
2022-08-17T16:24:57.078Z,44.39
2022-08-17T16:30:01.432Z,45.24
2022-08-17T16:35:09.080Z,44.62
2022-08-17T16:40:13.447Z,41.85
2022-08-17T16:45:20.142Z,38.94
2022-08-17T16:50:24.305Z,36.88
2022-08-17T16:55:27.716Z,35.50
2022-08-17T17:00:32.012Z,34.42
2022-08-17T17:05:44.475Z,33.60
2022-08-17T17:10:56.172Z,32.78
2022-08-17T17:16:24.478Z,32.21
2022-08-17T17:21:42.729Z,31.53
2022-08-17T17:27:00.819Z,30.80
2022-08-17T17:32:25.513Z,30.28
2022-08-17T17:37:34.345Z,29.88
2022-08-17T17:42:40.940Z,29.68
2022-08-17T17:47:45.147Z,29.70
2022-08-17T17:53:04.456Z,29.52
2022-08-17T17:58:18.237Z,29.17
2022-08-17T18:03:59.620Z,28.78
2022-08-17T18:09:40.922Z,28.27
2022-08-17T18:15:12.188Z,27.78
2022-08-17T18:20:37.126Z,27.41
2022-08-17T18:25:53.722Z,27.06
2022-08-17T18:31:16.698Z,26.78
2022-08-17T18:36:29.529Z,26.53
2022-08-17T18:41:44.205Z,26.32
2022-08-17T18:46:47.458Z,26.14
2022-08-17T18:52:14.191Z,25.97
2022-08-17T18:57:31.811Z,25.81
2022-08-17T19:02:45.211Z,25.63
2022-08-17T19:07:49.835Z,25.46
2022-08-17T19:12:58.450Z,25.29
2022-08-17T19:18:15.558Z,25.11
2022-08-17T19:23:29.749Z,24.92
2022-08-17T19:28:39.417Z,24.76
2022-08-17T19:33:47.854Z,24.61
2022-08-17T19:38:54.541Z,24.47
2022-08-17T19:44:19.549Z,24.34
2022-08-17T19:49:41.700Z,24.20
2022-08-17T19:55:01.907Z,24.04
2022-08-17T20:00:19.612Z,23.88
2022-08-17T20:05:31.159Z,23.78
2022-08-17T20:10:54.963Z,23.69
2022-08-17T20:15:58.876Z,23.67
2022-08-17T20:21:19.946Z,23.68
2022-08-17T20:26:49.106Z,23.69
2022-08-17T20:31:58.782Z,23.65
2022-08-17T20:37:08.716Z,23.59
2022-08-17T20:42:34.127Z,23.51
2022-08-17T20:47:50.621Z,23.44
2022-08-17T20:53:10.293Z,23.39
2022-08-17T20:58:15.652Z,23.35
2022-08-17T21:03:24.597Z,23.26
2022-08-17T21:08:36.199Z,23.15
2022-08-17T21:14:02.140Z,23.07
2022-08-17T21:19:23.575Z,22.95
2022-08-17T21:24:43.887Z,22.82
2022-08-17T21:30:06.580Z,22.67
2022-08-17T21:35:22.456Z,22.55
2022-08-17T21:40:31.297Z,22.40
2022-08-17T21:45:39.007Z,22.27
2022-08-17T21:50:46.293Z,22.17
2022-08-17T21:55:52.465Z,22.11
2022-08-17T22:01:22.058Z,22.10
2022-08-17T22:06:30.347Z,22.06
2022-08-17T22:12:02.332Z,22.01
2022-08-17T22:17:30.320Z,21.95
2022-08-17T22:23:18.995Z,21.88
2022-08-17T22:28:40.943Z,21.81
2022-08-17T22:33:48.454Z,21.75
2022-08-17T22:38:56.172Z,21.68
2022-08-17T22:44:09.104Z,21.62
2022-08-17T22:49:12.413Z,21.55
2022-08-17T22:54:37.432Z,21.48
2022-08-17T22:59:49.141Z,21.41
2022-08-17T23:05:17.034Z,21.34
2022-08-17T23:10:20.245Z,21.27
2022-08-17T23:15:27.543Z,21.20
2022-08-17T23:20:34.542Z,21.12
2022-08-17T23:25:38.569Z,21.01
2022-08-17T23:30:44.440Z,20.98
2022-08-17T23:35:48.160Z,20.95
2022-08-17T23:40:51.263Z,20.92
2022-08-17T23:45:57.677Z,20.86
2022-08-17T23:51:04.324Z,20.82
2022-08-17T23:56:11.499Z,20.77
